createdAt,value
2023-01-20T00:00:11.614Z,0.50
2023-01-20T00:02:41.462Z,0.50
2023-01-20T00:05:08.872Z,0.50
2023-01-20T00:07:36.180Z,0.40
2023-01-20T00:10:03.194Z,0.40
2023-01-20T00:12:30.737Z,0.40
2023-01-20T00:14:57.709Z,0.30
2023-01-20T00:17:24.657Z,0.20
2023-01-20T00:19:51.652Z,0.20
2023-01-20T00:22:18.613Z,0.20
2023-01-20T00:24:45.495Z,0.20
2023-01-20T00:27:12.397Z,0.20
2023-01-20T00:29:39.707Z,0.20
2023-01-20T00:32:06.782Z,-0.10
2023-01-20T00:34:33.798Z,0.00
2023-01-20T00:37:00.731Z,0.00
2023-01-20T00:39:27.635Z,0.00
2023-01-20T00:41:54.483Z,0.00
2023-01-20T00:44:21.392Z,0.10
2023-01-20T00:46:48.326Z,0.10
2023-01-20T00:49:15.262Z,0.10
2023-01-20T00:51:42.160Z,0.10
2023-01-20T00:54:08.996Z,0.10
2023-01-20T00:56:35.867Z,0.10
2023-01-20T00:59:02.693Z,0.10
2023-01-20T01:01:29.614Z,0.10
2023-01-20T01:03:56.470Z,0.00
2023-01-20T01:06:23.848Z,0.00
2023-01-20T01:08:50.842Z,0.00
2023-01-20T01:11:17.735Z,0.00
2023-01-20T01:13:44.631Z,0.00
2023-01-20T01:16:12.787Z,-0.10
2023-01-20T01:18:40.147Z,-0.10
2023-01-20T01:21:08.422Z,-0.10
2023-01-20T01:23:35.305Z,-0.10
2023-01-20T01:26:02.158Z,-0.10
2023-01-20T01:28:29.018Z,-0.20
2023-01-20T01:30:55.913Z,-0.20
2023-01-20T01:33:22.904Z,-0.20
2023-01-20T01:36:00.148Z,-0.20
2023-01-20T01:38:27.885Z,-0.30
2023-01-20T01:40:55.204Z,-0.30
2023-01-20T01:43:23.826Z,-0.30
2023-01-20T01:45:50.827Z,-0.30
2023-01-20T01:48:20.300Z,-0.30
2023-01-20T01:50:50.345Z,-0.30
2023-01-20T01:53:17.514Z,-0.40
2023-01-20T01:55:47.586Z,-0.40
2023-01-20T01:58:15.817Z,-0.50
2023-01-20T02:00:43.393Z,-0.50
2023-01-20T02:03:16.404Z,-0.50
2023-01-20T02:05:48.870Z,-0.50
2023-01-20T02:08:16.537Z,-0.50
2023-01-20T02:10:49.083Z,-0.50
2023-01-20T02:13:22.684Z,-0.50
2023-01-20T02:16:00.067Z,-0.50
2023-01-20T02:18:39.615Z,-0.50
2023-01-20T02:21:19.900Z,-0.60
2023-01-20T02:24:02.453Z,-0.60
2023-01-20T02:26:44.276Z,-0.60
2023-01-20T02:29:14.176Z,-0.70
2023-01-20T02:31:49.785Z,-0.70
2023-01-20T02:34:21.276Z,-0.70
2023-01-20T02:36:51.575Z,-0.70
2023-01-20T02:39:27.646Z,-0.80
2023-01-20T02:42:08.795Z,-0.80
2023-01-20T02:44:42.241Z,-0.80
2023-01-20T02:47:12.253Z,-0.80
2023-01-20T02:49:41.050Z,-0.80
2023-01-20T02:52:27.268Z,-0.80
2023-01-20T02:54:56.600Z,-0.80
2023-01-20T02:57:29.624Z,-0.80
2023-01-20T02:59:57.905Z,-0.80
2023-01-20T03:02:26.607Z,-0.80
2023-01-20T03:04:58.763Z,-0.90
2023-01-20T03:07:27.774Z,-0.90
2023-01-20T03:09:57.117Z,-0.90
2023-01-20T03:12:24.144Z,-0.90
2023-01-20T03:14:52.425Z,-1.00
2023-01-20T03:17:19.874Z,-1.00
2023-01-20T03:19:47.056Z,-1.00
2023-01-20T03:22:13.983Z,-1.00
2023-01-20T03:24:41.828Z,-1.00
2023-01-20T03:27:09.035Z,-1.00
2023-01-20T03:29:35.902Z,-1.10
2023-01-20T03:32:03.683Z,-1.10
2023-01-20T03:34:33.050Z,-1.10
2023-01-20T03:37:00.666Z,-1.10
2023-01-20T03:39:28.227Z,-1.20
2023-01-20T03:42:16.529Z,-1.10
2023-01-20T03:44:55.458Z,-1.20
2023-01-20T03:47:37.681Z,-1.20
2023-01-20T03:50:13.846Z,-1.20
2023-01-20T03:53:10.118Z,-1.20
2023-01-20T03:55:39.714Z,-1.20
2023-01-20T03:58:09.091Z,-1.20
2023-01-20T04:00:44.298Z,-1.20
2023-01-20T04:03:38.118Z,-1.20
2023-01-20T04:06:06.571Z,-1.20
2023-01-20T04:08:39.201Z,-1.20
2023-01-20T04:11:07.154Z,-1.30
2023-01-20T04:13:34.110Z,-1.30
2023-01-20T04:16:02.173Z,-1.30
2023-01-20T04:18:29.410Z,-1.30
2023-01-20T04:21:01.770Z,-1.40
2023-01-20T04:23:31.721Z,-1.40
2023-01-20T04:25:58.592Z,-1.30
2023-01-20T04:28:26.071Z,-1.40
2023-01-20T04:30:53.155Z,-1.40
2023-01-20T04:33:20.033Z,-1.40
2023-01-20T04:35:47.212Z,-1.40
2023-01-20T04:38:14.110Z,-1.50
2023-01-20T04:40:41.038Z,-1.40
2023-01-20T04:43:10.107Z,-1.50
2023-01-20T04:45:36.935Z,-1.50
2023-01-20T04:48:07.597Z,-1.50
2023-01-20T04:50:37.792Z,-1.50
2023-01-20T04:53:04.661Z,-1.50
2023-01-20T04:55:32.419Z,-1.50
2023-01-20T04:57:59.345Z,-1.50
2023-01-20T05:00:26.200Z,-1.50
2023-01-20T05:02:53.217Z,-1.50
2023-01-20T05:05:20.118Z,-1.50
2023-01-20T05:07:47.000Z,-1.40
2023-01-20T05:10:13.883Z,-1.40
2023-01-20T05:12:41.414Z,-1.50
2023-01-20T05:15:08.513Z,-1.40
2023-01-20T05:17:35.493Z,-1.40
2023-01-20T05:20:02.500Z,-1.40
2023-01-20T05:22:33.153Z,-1.40
2023-01-20T05:25:00.166Z,-1.40
2023-01-20T05:27:27.042Z,-1.40
2023-01-20T05:29:54.159Z,-1.40
2023-01-20T05:32:21.249Z,-1.40
2023-01-20T05:34:48.093Z,-1.40
2023-01-20T05:37:16.923Z,-1.40
2023-01-20T05:39:43.836Z,-1.40
2023-01-20T05:42:10.736Z,-1.30
2023-01-20T05:44:37.636Z,-1.40
2023-01-20T05:47:04.596Z,-1.40
2023-01-20T05:49:31.541Z,-1.40
2023-01-20T05:51:58.383Z,-1.40
2023-01-20T05:54:26.257Z,-1.40
2023-01-20T05:56:53.180Z,-1.30
2023-01-20T05:59:20.130Z,-1.40
2023-01-20T06:01:47.009Z,-1.40
2023-01-20T06:04:13.925Z,-1.40
2023-01-20T06:06:40.869Z,-1.30
2023-01-20T06:09:07.818Z,-1.40
2023-01-20T06:11:35.029Z,-1.40
2023-01-20T06:14:02.289Z,-1.30
2023-01-20T06:16:33.820Z,-1.30
2023-01-20T06:19:07.299Z,-1.40
2023-01-20T06:21:46.908Z,-1.30
2023-01-20T06:24:23.189Z,-1.40
2023-01-20T06:26:53.362Z,-1.40
2023-01-20T06:29:22.638Z,-1.30
2023-01-20T06:31:49.538Z,-1.30
2023-01-20T06:34:16.420Z,-1.30
2023-01-20T06:36:43.258Z,-1.30
2023-01-20T06:39:10.175Z,-1.30
2023-01-20T06:41:37.051Z,-1.30
2023-01-20T06:44:03.956Z,-1.30
2023-01-20T06:46:30.857Z,-1.30
2023-01-20T06:49:00.805Z,-1.20
2023-01-20T06:51:28.645Z,-1.20
2023-01-20T06:53:56.092Z,-1.20
2023-01-20T06:56:23.404Z,-1.20
2023-01-20T06:58:50.361Z,-1.20
2023-01-20T07:01:27.705Z,-1.20
2023-01-20T07:03:55.191Z,-1.20
2023-01-20T07:06:22.053Z,-1.20
2023-01-20T07:08:48.912Z,-1.00
2023-01-20T07:11:15.869Z,-1.00
2023-01-20T07:13:43.080Z,-1.00
2023-01-20T07:16:12.554Z,-0.90
2023-01-20T07:18:41.063Z,-0.90
2023-01-20T07:21:09.285Z,-0.80
2023-01-20T07:23:36.161Z,-0.70
2023-01-20T07:26:05.007Z,-0.70
2023-01-20T07:28:32.322Z,-0.60
2023-01-20T07:31:06.475Z,-0.60
2023-01-20T07:33:35.790Z,-0.60
2023-01-20T07:36:12.293Z,-0.50
2023-01-20T07:38:42.316Z,-0.50
2023-01-20T07:41:21.288Z,-0.30
2023-01-20T07:43:55.516Z,-0.20
2023-01-20T07:46:23.813Z,0.00
2023-01-20T07:48:51.107Z,0.10
2023-01-20T07:51:18.174Z,0.30
2023-01-20T07:53:47.223Z,0.50
2023-01-20T07:56:33.273Z,0.70
2023-01-20T07:59:05.217Z,0.90
2023-01-20T08:01:41.044Z,1.00
2023-01-20T08:04:13.586Z,1.10
2023-01-20T08:06:46.871Z,1.20
2023-01-20T08:09:26.918Z,1.30
2023-01-20T08:11:59.401Z,1.40
2023-01-20T08:14:37.801Z,1.50
2023-01-20T08:17:16.224Z,1.40
2023-01-20T08:19:56.046Z,1.40
2023-01-20T08:22:35.914Z,1.50
2023-01-20T08:25:15.708Z,1.60
2023-01-20T08:27:53.557Z,1.60
2023-01-20T08:30:21.118Z,1.70
2023-01-20T08:32:51.005Z,1.60
2023-01-20T08:35:24.075Z,1.60
2023-01-20T08:37:53.685Z,1.60
2023-01-20T08:40:27.427Z,1.60
2023-01-20T08:43:05.474Z,1.60
2023-01-20T08:45:43.448Z,1.60
2023-01-20T08:48:13.470Z,1.60
2023-01-20T08:50:50.880Z,1.50
2023-01-20T08:53:21.596Z,1.60
2023-01-20T08:55:59.306Z,1.60
2023-01-20T08:58:26.862Z,1.60
2023-01-20T09:00:54.374Z,1.50
2023-01-20T09:03:21.699Z,1.60
2023-01-20T09:05:49.554Z,1.50
2023-01-20T09:08:17.494Z,1.60
2023-01-20T09:10:44.809Z,1.60
2023-01-20T09:13:12.284Z,1.60
2023-01-20T09:15:39.536Z,1.60
2023-01-20T09:18:07.312Z,1.60
2023-01-20T09:20:34.326Z,1.60
2023-01-20T09:23:02.022Z,1.60
2023-01-20T09:25:29.528Z,1.60
2023-01-20T09:27:59.736Z,1.60
2023-01-20T09:30:26.666Z,1.60
2023-01-20T09:32:55.435Z,1.60
2023-01-20T09:35:22.873Z,1.70
2023-01-20T09:38:08.665Z,1.70
2023-01-20T09:41:00.226Z,1.70
2023-01-20T09:43:59.293Z,1.70
2023-01-20T09:46:38.160Z,1.70
2023-01-20T09:49:30.043Z,1.70
2023-01-20T09:52:33.134Z,1.70
2023-01-20T09:55:14.112Z,1.70
2023-01-20T09:57:58.210Z,1.70
2023-01-20T10:00:39.363Z,1.60
2023-01-20T10:03:17.502Z,1.70
2023-01-20T10:05:49.208Z,1.70
2023-01-20T10:08:35.958Z,1.80
2023-01-20T10:11:16.111Z,1.80
2023-01-20T10:14:02.321Z,1.80
2023-01-20T10:16:56.519Z,1.80
2023-01-20T10:19:52.386Z,1.80
2023-01-20T10:22:23.564Z,1.80
2023-01-20T10:25:04.243Z,1.80
2023-01-20T10:27:53.255Z,1.80
2023-01-20T10:30:31.758Z,1.80
2023-01-20T10:33:09.758Z,1.80
2023-01-20T10:35:45.938Z,1.70
2023-01-20T10:38:38.254Z,1.80
2023-01-20T10:41:07.758Z,1.80
2023-01-20T10:43:39.190Z,1.80
2023-01-20T10:46:39.263Z,1.80
2023-01-20T10:49:21.536Z,1.80
2023-01-20T10:52:04.899Z,1.80
2023-01-20T10:54:53.807Z,1.90
2023-01-20T10:57:25.556Z,1.90
2023-01-20T11:00:00.544Z,1.90
2023-01-20T11:02:36.583Z,1.90
2023-01-20T11:05:27.941Z,2.00
2023-01-20T11:07:58.286Z,2.00
2023-01-20T11:10:41.487Z,2.00
2023-01-20T11:13:18.289Z,2.00
2023-01-20T11:16:19.177Z,2.00
2023-01-20T11:18:56.543Z,2.00
2023-01-20T11:21:37.136Z,2.10
2023-01-20T11:24:31.897Z,2.10
2023-01-20T11:27:25.965Z,2.10
2023-01-20T11:30:10.958Z,2.10
2023-01-20T11:33:19.978Z,2.10
2023-01-20T11:36:01.371Z,2.20
2023-01-20T11:38:31.116Z,2.20
2023-01-20T11:41:02.108Z,2.20
2023-01-20T11:43:37.053Z,2.20
2023-01-20T11:46:16.313Z,2.20
2023-01-20T11:48:43.547Z,2.20
2023-01-20T11:51:25.584Z,2.30
2023-01-20T11:54:06.721Z,2.30
2023-01-20T11:56:39.239Z,2.30
2023-01-20T11:59:18.161Z,2.30
2023-01-20T12:01:58.116Z,2.30
2023-01-20T12:04:43.751Z,2.30
2023-01-20T12:07:20.344Z,2.30
2023-01-20T12:09:50.541Z,2.30
2023-01-20T12:12:20.571Z,2.30
2023-01-20T12:14:50.818Z,2.30
2023-01-20T12:17:22.104Z,2.30
2023-01-20T12:19:49.709Z,2.40
2023-01-20T12:22:24.414Z,2.30
2023-01-20T12:25:10.365Z,2.30
2023-01-20T12:27:42.887Z,2.40
2023-01-20T12:30:23.188Z,2.40
2023-01-20T12:32:51.034Z,2.40
2023-01-20T12:35:19.147Z,2.50
2023-01-20T12:37:56.892Z,2.50
2023-01-20T12:40:37.334Z,2.50
2023-01-20T12:43:08.127Z,2.60
2023-01-20T12:45:47.662Z,2.60
2023-01-20T12:48:31.114Z,2.60
2023-01-20T12:51:07.409Z,2.60
2023-01-20T12:53:39.556Z,2.60
2023-01-20T12:56:15.784Z,2.50
2023-01-20T12:58:54.564Z,2.50
2023-01-20T13:01:28.622Z,2.50
2023-01-20T13:04:05.097Z,2.50
2023-01-20T13:06:50.893Z,2.60
2023-01-20T13:09:29.152Z,2.60
2023-01-20T13:12:02.161Z,2.60
2023-01-20T13:14:41.388Z,2.60
2023-01-20T13:17:08.337Z,2.60
2023-01-20T13:19:39.054Z,2.60
2023-01-20T13:22:15.306Z,2.60
2023-01-20T13:24:44.740Z,2.60
2023-01-20T13:27:13.984Z,2.60
2023-01-20T13:29:53.118Z,2.60
2023-01-20T13:32:27.727Z,2.60
2023-01-20T13:34:54.777Z,2.60
2023-01-20T13:37:24.709Z,2.60
2023-01-20T13:39:52.144Z,2.60
2023-01-20T13:42:42.420Z,2.60
2023-01-20T13:45:12.587Z,2.60
2023-01-20T13:47:53.724Z,2.60
2023-01-20T13:50:22.153Z,2.60
2023-01-20T13:52:52.318Z,2.60
2023-01-20T13:55:38.116Z,2.60
2023-01-20T13:58:05.003Z,2.60
2023-01-20T14:00:31.891Z,2.60
2023-01-20T14:02:59.171Z,2.60
2023-01-20T14:05:30.344Z,2.70
2023-01-20T14:07:57.858Z,2.70
2023-01-20T14:10:25.028Z,2.70
2023-01-20T14:12:52.066Z,2.70
2023-01-20T14:15:27.407Z,2.70
2023-01-20T14:17:58.264Z,2.70
2023-01-20T14:20:26.066Z,2.70
2023-01-20T14:22:53.222Z,2.70
2023-01-20T14:25:25.657Z,2.70
2023-01-20T14:27:52.772Z,2.70
2023-01-20T14:30:24.801Z,2.70
2023-01-20T14:32:52.615Z,2.60
2023-01-20T14:35:21.187Z,2.60
2023-01-20T14:37:51.968Z,2.60
2023-01-20T14:40:24.736Z,2.70
2023-01-20T14:43:03.676Z,2.70
2023-01-20T14:45:32.443Z,2.70
2023-01-20T14:48:01.116Z,2.70
2023-01-20T14:50:28.916Z,2.70
2023-01-20T14:52:56.305Z,2.70
2023-01-20T14:55:27.352Z,2.60
2023-01-20T14:57:54.401Z,2.60
2023-01-20T15:00:21.454Z,2.60
2023-01-20T15:03:01.050Z,2.60
2023-01-20T15:05:36.070Z,2.60
2023-01-20T15:08:12.293Z,2.70
2023-01-20T15:10:39.467Z,2.70
2023-01-20T15:13:23.497Z,2.60
2023-01-20T15:15:50.481Z,2.70
2023-01-20T15:18:21.781Z,2.70
2023-01-20T15:20:48.746Z,2.70
2023-01-20T15:23:24.168Z,2.70
2023-01-20T15:25:52.480Z,2.70
2023-01-20T15:28:29.654Z,2.60
2023-01-20T15:30:57.623Z,2.60
2023-01-20T15:33:25.241Z,2.60
2023-01-20T15:35:56.812Z,2.60
2023-01-20T15:38:23.856Z,2.60
2023-01-20T15:40:50.871Z,2.50
2023-01-20T15:43:18.921Z,2.50
2023-01-20T15:45:46.566Z,2.50
2023-01-20T15:48:14.787Z,2.60
2023-01-20T15:50:42.569Z,2.50
2023-01-20T15:53:12.444Z,2.50
2023-01-20T15:55:42.564Z,2.50
2023-01-20T15:58:19.543Z,2.50
2023-01-20T16:00:46.426Z,2.50
2023-01-20T16:03:13.402Z,2.50
2023-01-20T16:05:40.312Z,2.40
2023-01-20T16:08:13.583Z,2.50
2023-01-20T16:10:41.063Z,2.40
2023-01-20T16:13:12.578Z,2.40
2023-01-20T16:15:42.767Z,2.40
2023-01-20T16:18:18.398Z,2.40
2023-01-20T16:20:47.528Z,2.40
2023-01-20T16:23:14.780Z,2.40
2023-01-20T16:25:42.711Z,2.40
2023-01-20T16:28:18.768Z,2.40
2023-01-20T16:30:46.105Z,2.40
2023-01-20T16:33:18.296Z,2.40
2023-01-20T16:35:46.251Z,2.40
2023-01-20T16:38:15.224Z,2.40
2023-01-20T16:40:47.112Z,2.40
2023-01-20T16:43:14.382Z,2.40
2023-01-20T16:45:42.166Z,2.40
2023-01-20T16:48:09.998Z,2.40
2023-01-20T16:50:37.310Z,2.40
2023-01-20T16:53:04.820Z,2.40
2023-01-20T16:55:32.376Z,2.40
2023-01-20T16:57:59.617Z,2.40
2023-01-20T17:00:26.726Z,2.30
2023-01-20T17:02:53.960Z,2.40
2023-01-20T17:05:22.974Z,2.40
2023-01-20T17:07:50.631Z,2.40
2023-01-20T17:10:18.458Z,2.40
2023-01-20T17:12:48.778Z,2.40
2023-01-20T17:15:16.247Z,2.40
2023-01-20T17:17:43.808Z,2.30
2023-01-20T17:20:11.775Z,2.30
2023-01-20T17:22:42.258Z,2.40
2023-01-20T17:25:10.290Z,2.30
2023-01-20T17:27:39.878Z,2.30
2023-01-20T17:30:08.261Z,2.30
2023-01-20T17:32:35.764Z,2.30
2023-01-20T17:35:03.665Z,2.30
2023-01-20T17:37:31.477Z,2.30
2023-01-20T17:40:00.792Z,2.30
2023-01-20T17:42:29.639Z,2.30
2023-01-20T17:45:02.050Z,2.30
2023-01-20T17:47:31.400Z,2.30
2023-01-20T17:49:59.131Z,2.30
2023-01-20T17:52:27.819Z,2.20
2023-01-20T17:54:54.968Z,2.20
2023-01-20T17:57:23.834Z,2.30
2023-01-20T17:59:51.952Z,2.20
2023-01-20T18:02:21.196Z,2.20
2023-01-20T18:04:48.981Z,2.20
2023-01-20T18:07:19.393Z,2.20
2023-01-20T18:09:46.756Z,2.20
2023-01-20T18:12:14.706Z,2.20
2023-01-20T18:14:42.991Z,2.10
2023-01-20T18:17:10.550Z,2.20
2023-01-20T18:19:37.645Z,2.20
2023-01-20T18:22:08.089Z,2.20
2023-01-20T18:24:35.553Z,2.20
2023-01-20T18:27:05.075Z,2.20
2023-01-20T18:29:35.580Z,2.20
2023-01-20T18:32:03.309Z,2.20
2023-01-20T18:34:30.921Z,2.20
2023-01-20T18:36:58.382Z,2.20
2023-01-20T18:39:27.035Z,2.20
2023-01-20T18:41:54.684Z,2.10
2023-01-20T18:44:23.404Z,2.10
2023-01-20T18:46:51.132Z,2.10
2023-01-20T18:49:19.825Z,2.00
2023-01-20T18:51:47.299Z,2.20
2023-01-20T18:54:17.785Z,2.10
2023-01-20T18:56:45.177Z,2.20
2023-01-20T18:59:12.317Z,2.20
2023-01-20T19:01:40.680Z,2.20
2023-01-20T19:04:09.106Z,2.20
2023-01-20T19:06:37.760Z,2.10
2023-01-20T19:09:06.051Z,2.10
2023-01-20T19:11:36.088Z,2.00
2023-01-20T19:14:05.263Z,2.10
2023-01-20T19:16:33.768Z,2.00
2023-01-20T19:19:03.884Z,2.10
2023-01-20T19:21:33.052Z,2.10
2023-01-20T19:24:03.445Z,2.10
2023-01-20T19:26:30.836Z,2.10
2023-01-20T19:29:02.620Z,2.20
2023-01-20T19:31:32.899Z,2.20
2023-01-20T19:34:01.007Z,2.10
2023-01-20T19:36:28.659Z,2.10
2023-01-20T19:38:56.885Z,2.10
2023-01-20T19:41:29.507Z,2.10
2023-01-20T19:44:00.186Z,2.20
2023-01-20T19:46:29.337Z,2.20
2023-01-20T19:48:58.129Z,2.20
2023-01-20T19:51:26.319Z,2.10
2023-01-20T19:54:39.567Z,2.10
2023-01-20T19:57:18.186Z,2.10
2023-01-20T19:59:52.213Z,2.00
2023-01-20T20:02:29.992Z,2.00
2023-01-20T20:05:06.550Z,2.00
2023-01-20T20:07:38.188Z,2.10
2023-01-20T20:10:47.217Z,2.10
2023-01-20T20:13:15.063Z,2.10
2023-01-20T20:15:42.861Z,2.10
2023-01-20T20:18:17.734Z,2.00
2023-01-20T20:21:01.554Z,1.90
2023-01-20T20:23:32.359Z,1.90
2023-01-20T20:26:06.022Z,1.90
2023-01-20T20:28:39.419Z,2.00
2023-01-20T20:31:31.567Z,2.00
2023-01-20T20:34:04.118Z,1.90
2023-01-20T20:36:36.310Z,2.00
2023-01-20T20:39:09.466Z,2.00
2023-01-20T20:41:52.249Z,2.00
2023-01-20T20:44:23.053Z,2.00
2023-01-20T20:47:04.131Z,2.00
2023-01-20T20:49:41.484Z,2.10
2023-01-20T20:52:09.178Z,2.00
2023-01-20T20:54:37.173Z,2.00
2023-01-20T20:57:15.455Z,2.00
2023-01-20T20:59:58.577Z,2.00
2023-01-20T21:02:27.927Z,2.00
2023-01-20T21:05:02.323Z,2.00
2023-01-20T21:07:34.270Z,2.00
2023-01-20T21:10:08.183Z,2.00
2023-01-20T21:12:38.404Z,2.00
2023-01-20T21:15:19.777Z,2.00
2023-01-20T21:17:50.436Z,2.10
2023-01-20T21:20:20.582Z,2.10
2023-01-20T21:22:50.545Z,2.10
2023-01-20T21:25:17.879Z,2.00
2023-01-20T21:27:47.998Z,2.00
2023-01-20T21:30:15.394Z,2.00
2023-01-20T21:32:43.108Z,2.00
2023-01-20T21:35:12.165Z,2.10
2023-01-20T21:37:39.878Z,2.00
2023-01-20T21:40:07.170Z,2.10
2023-01-20T21:42:34.149Z,2.00
2023-01-20T21:45:01.586Z,2.00
2023-01-20T21:47:29.072Z,2.00
2023-01-20T21:50:19.192Z,2.00
2023-01-20T21:52:46.674Z,2.00
2023-01-20T21:55:19.268Z,2.00
2023-01-20T21:57:47.997Z,2.00
2023-01-20T22:00:17.237Z,2.00
2023-01-20T22:02:47.561Z,2.00
2023-01-20T22:05:14.754Z,1.90
2023-01-20T22:07:41.579Z,1.90
2023-01-20T22:10:08.852Z,1.80
2023-01-20T22:12:35.840Z,1.80
2023-01-20T22:15:03.552Z,1.90
2023-01-20T22:17:30.875Z,1.90
2023-01-20T22:19:57.833Z,1.90
2023-01-20T22:22:24.783Z,1.90
2023-01-20T22:24:51.999Z,1.80
2023-01-20T22:27:19.067Z,1.80
2023-01-20T22:29:46.564Z,1.90
2023-01-20T22:32:13.450Z,1.90
2023-01-20T22:34:40.306Z,1.80
2023-01-20T22:37:07.309Z,1.90
2023-01-20T22:39:34.243Z,1.90
2023-01-20T22:42:01.222Z,1.90
2023-01-20T22:44:28.253Z,1.80
2023-01-20T22:46:55.176Z,1.80
2023-01-20T22:49:22.107Z,1.80
2023-01-20T22:51:50.237Z,1.70
2023-01-20T22:54:17.179Z,1.70
2023-01-20T22:56:44.106Z,1.70
2023-01-20T22:59:11.909Z,1.80
2023-01-20T23:01:39.112Z,1.80
2023-01-20T23:04:06.329Z,1.80
2023-01-20T23:06:34.713Z,1.80
2023-01-20T23:09:02.790Z,1.70
2023-01-20T23:11:29.740Z,1.70
2023-01-20T23:13:56.726Z,1.70
2023-01-20T23:16:23.689Z,1.60
2023-01-20T23:18:51.310Z,1.60
2023-01-20T23:21:18.676Z,1.70
2023-01-20T23:23:45.643Z,1.70
2023-01-20T23:26:18.958Z,1.70
2023-01-20T23:28:46.600Z,1.60
2023-01-20T23:31:14.858Z,1.60
2023-01-20T23:33:43.703Z,1.60
2023-01-20T23:36:13.419Z,1.60
2023-01-20T23:38:40.553Z,1.60
2023-01-20T23:41:07.492Z,1.50
2023-01-20T23:43:34.565Z,1.50
2023-01-20T23:46:02.012Z,1.50
2023-01-20T23:48:29.279Z,1.50
2023-01-20T23:50:56.549Z,1.50
2023-01-20T23:53:23.485Z,1.50
2023-01-20T23:55:50.399Z,1.50
2023-01-20T23:58:17.378Z,1.50
